sensor_id;sensor_type;location;lat;lon;timestamp;P1;durP1;ratioP1;P2;durP2;ratioP2
42006;SDS011;27696;42.704;23.304;2023-12-14T00:01:39;17.77;;;11.45;;
42006;SDS011;27696;42.704;23.304;2023-12-14T00:04:06;13.07;;;10.27;;
42006;SDS011;27696;42.704;23.304;2023-12-14T00:06:32;15.43;;;11.05;;
42006;SDS011;27696;42.704;23.304;2023-12-14T00:08:57;13.70;;;10.82;;
42006;SDS011;27696;42.704;23.304;2023-12-14T00:11:23;16.13;;;11.40;;
42006;SDS011;27696;42.704;23.304;2023-12-14T00:13:48;17.55;;;11.43;;
42006;SDS011;27696;42.704;23.304;2023-12-14T00:16:14;15.65;;;10.88;;
42006;SDS011;27696;42.704;23.304;2023-12-14T00:18:39;21.65;;;11.10;;
42006;SDS011;27696;42.704;23.304;2023-12-14T00:21:05;16.88;;;11.93;;
42006;SDS011;27696;42.704;23.304;2023-12-14T00:23:30;18.52;;;11.20;;
42006;SDS011;27696;42.704;23.304;2023-12-14T00:25:56;13.95;;;10.55;;
42006;SDS011;27696;42.704;23.304;2023-12-14T00:28:21;17.52;;;11.15;;
42006;SDS011;27696;42.704;23.304;2023-12-14T00:30:47;17.27;;;12.88;;
42006;SDS011;27696;42.704;23.304;2023-12-14T00:33:13;24.40;;;14.95;;
42006;SDS011;27696;42.704;23.304;2023-12-14T00:35:38;23.27;;;15.73;;
42006;SDS011;27696;42.704;23.304;2023-12-14T00:38:04;23.88;;;17.00;;
42006;SDS011;27696;42.704;23.304;2023-12-14T00:40:29;29.17;;;18.67;;
42006;SDS011;27696;42.704;23.304;2023-12-14T00:42:55;33.78;;;19.42;;
42006;SDS011;27696;42.704;23.304;2023-12-14T00:45:20;27.63;;;19.23;;
42006;SDS011;27696;42.704;23.304;2023-12-14T00:47:46;28.35;;;20.55;;
42006;SDS011;27696;42.704;23.304;2023-12-14T00:50:11;28.23;;;18.90;;
42006;SDS011;27696;42.704;23.304;2023-12-14T00:52:37;26.48;;;18.67;;
42006;SDS011;27696;42.704;23.304;2023-12-14T00:55:02;25.30;;;19.00;;
42006;SDS011;27696;42.704;23.304;2023-12-14T00:57:28;32.17;;;19.85;;
42006;SDS011;27696;42.704;23.304;2023-12-14T01:03:15;29.90;;;20.08;;
42006;SDS011;27696;42.704;23.304;2023-12-14T01:05:41;27.58;;;18.77;;
42006;SDS011;27696;42.704;23.304;2023-12-14T01:08:06;28.00;;;19.77;;
42006;SDS011;27696;42.704;23.304;2023-12-14T01:10:32;29.35;;;19.23;;
42006;SDS011;27696;42.704;23.304;2023-12-14T01:12:58;30.75;;;20.80;;
42006;SDS011;27696;42.704;23.304;2023-12-14T01:15:23;30.00;;;19.98;;
42006;SDS011;27696;42.704;23.304;2023-12-14T01:17:49;34.13;;;21.20;;
42006;SDS011;27696;42.704;23.304;2023-12-14T01:20:14;34.05;;;22.02;;
42006;SDS011;27696;42.704;23.304;2023-12-14T01:22:40;30.42;;;21.25;;
42006;SDS011;27696;42.704;23.304;2023-12-14T01:25:05;31.60;;;22.38;;
42006;SDS011;27696;42.704;23.304;2023-12-14T01:27:31;31.15;;;22.45;;
42006;SDS011;27696;42.704;23.304;2023-12-14T01:29:56;36.90;;;22.08;;
42006;SDS011;27696;42.704;23.304;2023-12-14T01:32:22;29.92;;;20.73;;
42006;SDS011;27696;42.704;23.304;2023-12-14T01:34:47;31.17;;;20.95;;
42006;SDS011;27696;42.704;23.304;2023-12-14T01:37:13;31.85;;;21.13;;
42006;SDS011;27696;42.704;23.304;2023-12-14T01:39:38;32.67;;;22.13;;
42006;SDS011;27696;42.704;23.304;2023-12-14T01:42:04;32.92;;;21.27;;
42006;SDS011;27696;42.704;23.304;2023-12-14T01:44:29;36.28;;;22.38;;
42006;SDS011;27696;42.704;23.304;2023-12-14T01:46:55;34.30;;;22.67;;
42006;SDS011;27696;42.704;23.304;2023-12-14T01:49:20;34.67;;;22.98;;
42006;SDS011;27696;42.704;23.304;2023-12-14T01:51:46;35.10;;;23.25;;
42006;SDS011;27696;42.704;23.304;2023-12-14T01:54:11;33.22;;;22.95;;
42006;SDS011;27696;42.704;23.304;2023-12-14T01:56:37;34.05;;;22.98;;
42006;SDS011;27696;42.704;23.304;2023-12-14T02:02:24;29.15;;;19.92;;
42006;SDS011;27696;42.704;23.304;2023-12-14T02:04:49;29.63;;;20.20;;
42006;SDS011;27696;42.704;23.304;2023-12-14T02:07:15;29.42;;;20.27;;
42006;SDS011;27696;42.704;23.304;2023-12-14T02:09:40;30.60;;;19.95;;
42006;SDS011;27696;42.704;23.304;2023-12-14T02:12:06;31.17;;;20.67;;
42006;SDS011;27696;42.704;23.304;2023-12-14T02:14:31;32.63;;;19.85;;
42006;SDS011;27696;42.704;23.304;2023-12-14T02:16:57;29.45;;;19.02;;
42006;SDS011;27696;42.704;23.304;2023-12-14T02:19:22;32.72;;;20.73;;
42006;SDS011;27696;42.704;23.304;2023-12-14T02:21:48;31.55;;;20.13;;
42006;SDS011;27696;42.704;23.304;2023-12-14T02:24:13;29.92;;;20.15;;
42006;SDS011;27696;42.704;23.304;2023-12-14T02:26:38;29.17;;;19.25;;
42006;SDS011;27696;42.704;23.304;2023-12-14T02:32:25;29.40;;;18.88;;
42006;SDS011;27696;42.704;23.304;2023-12-14T02:34:51;30.63;;;19.33;;
42006;SDS011;27696;42.704;23.304;2023-12-14T02:37:16;29.42;;;19.52;;
42006;SDS011;27696;42.704;23.304;2023-12-14T02:39:42;29.35;;;19.05;;
42006;SDS011;27696;42.704;23.304;2023-12-14T02:42:07;27.50;;;19.65;;
42006;SDS011;27696;42.704;23.304;2023-12-14T02:44:33;31.75;;;20.35;;
42006;SDS011;27696;42.704;23.304;2023-12-14T02:46:58;31.20;;;20.05;;
42006;SDS011;27696;42.704;23.304;2023-12-14T02:49:24;28.38;;;20.52;;
42006;SDS011;27696;42.704;23.304;2023-12-14T02:51:49;30.13;;;20.67;;
42006;SDS011;27696;42.704;23.304;2023-12-14T02:54:15;31.45;;;19.33;;
42006;SDS011;27696;42.704;23.304;2023-12-14T02:56:40;29.60;;;19.55;;
42006;SDS011;27696;42.704;23.304;2023-12-14T02:59:05;27.73;;;18.25;;
42006;SDS011;27696;42.704;23.304;2023-12-14T03:01:31;27.60;;;19.92;;
42006;SDS011;27696;42.704;23.304;2023-12-14T03:03:56;29.10;;;20.40;;
42006;SDS011;27696;42.704;23.304;2023-12-14T03:06:22;27.55;;;20.38;;
42006;SDS011;27696;42.704;23.304;2023-12-14T03:08:47;25.98;;;18.30;;
42006;SDS011;27696;42.704;23.304;2023-12-14T03:11:20;23.13;;;17.88;;
42006;SDS011;27696;42.704;23.304;2023-12-14T03:13:49;25.15;;;17.33;;
42006;SDS011;27696;42.704;23.304;2023-12-14T03:16:15;22.90;;;15.82;;
42006;SDS011;27696;42.704;23.304;2023-12-14T03:18:42;24.50;;;17.77;;
42006;SDS011;27696;42.704;23.304;2023-12-14T03:21:08;20.80;;;15.90;;
42006;SDS011;27696;42.704;23.304;2023-12-14T03:23:34;21.77;;;15.05;;
42006;SDS011;27696;42.704;23.304;2023-12-14T03:25:59;22.70;;;15.07;;
42006;SDS011;27696;42.704;23.304;2023-12-14T03:28:26;21.50;;;14.88;;
42006;SDS011;27696;42.704;23.304;2023-12-14T03:30:52;21.13;;;14.23;;
42006;SDS011;27696;42.704;23.304;2023-12-14T03:33:20;20.33;;;14.68;;
42006;SDS011;27696;42.704;23.304;2023-12-14T03:35:47;23.27;;;15.27;;
42006;SDS011;27696;42.704;23.304;2023-12-14T03:38:15;27.15;;;14.38;;
42006;SDS011;27696;42.704;23.304;2023-12-14T03:40:41;21.15;;;14.65;;
42006;SDS011;27696;42.704;23.304;2023-12-14T03:43:06;24.98;;;14.68;;
42006;SDS011;27696;42.704;23.304;2023-12-14T03:45:32;27.33;;;16.92;;
42006;SDS011;27696;42.704;23.304;2023-12-14T03:47:57;25.65;;;16.30;;
42006;SDS011;27696;42.704;23.304;2023-12-14T03:50:23;23.15;;;15.85;;
42006;SDS011;27696;42.704;23.304;2023-12-14T03:52:49;23.13;;;15.05;;
42006;SDS011;27696;42.704;23.304;2023-12-14T03:55:14;26.40;;;15.27;;
42006;SDS011;27696;42.704;23.304;2023-12-14T03:57:40;24.58;;;14.68;;
42006;SDS011;27696;42.704;23.304;2023-12-14T04:00:10;23.88;;;15.30;;
42006;SDS011;27696;42.704;23.304;2023-12-14T04:02:36;24.42;;;15.10;;
42006;SDS011;27696;42.704;23.304;2023-12-14T04:05:01;22.02;;;14.55;;
42006;SDS011;27696;42.704;23.304;2023-12-14T04:07:27;22.08;;;14.95;;
42006;SDS011;27696;42.704;23.304;2023-12-14T04:13:14;20.50;;;13.68;;
42006;SDS011;27696;42.704;23.304;2023-12-14T04:15:40;19.75;;;14.10;;
42006;SDS011;27696;42.704;23.304;2023-12-14T04:18:07;20.92;;;14.80;;
42006;SDS011;27696;42.704;23.304;2023-12-14T04:20:33;19.67;;;13.95;;
42006;SDS011;27696;42.704;23.304;2023-12-14T04:23:01;22.95;;;13.85;;
42006;SDS011;27696;42.704;23.304;2023-12-14T04:25:27;20.08;;;15.20;;
42006;SDS011;27696;42.704;23.304;2023-12-14T04:27:52;21.40;;;15.30;;
42006;SDS011;27696;42.704;23.304;2023-12-14T04:30:18;25.15;;;15.38;;
42006;SDS011;27696;42.704;23.304;2023-12-14T04:32:43;21.90;;;16.60;;
42006;SDS011;27696;42.704;23.304;2023-12-14T04:35:10;24.90;;;17.27;;
42006;SDS011;27696;42.704;23.304;2023-12-14T04:37:35;25.23;;;17.02;;
42006;SDS011;27696;42.704;23.304;2023-12-14T04:40:01;25.88;;;17.25;;
42006;SDS011;27696;42.704;23.304;2023-12-14T04:42:28;22.83;;;17.13;;
42006;SDS011;27696;42.704;23.304;2023-12-14T04:44:53;28.33;;;18.45;;
42006;SDS011;27696;42.704;23.304;2023-12-14T04:47:19;23.67;;;16.67;;
42006;SDS011;27696;42.704;23.304;2023-12-14T04:49:44;27.23;;;18.55;;
42006;SDS011;27696;42.704;23.304;2023-12-14T04:52:10;23.67;;;17.25;;
42006;SDS011;27696;42.704;23.304;2023-12-14T04:54:35;30.95;;;19.30;;
42006;SDS011;27696;42.704;23.304;2023-12-14T04:57:03;27.85;;;18.73;;
42006;SDS011;27696;42.704;23.304;2023-12-14T04:59:29;27.10;;;17.85;;
42006;SDS011;27696;42.704;23.304;2023-12-14T05:01:54;25.08;;;18.77;;
42006;SDS011;27696;42.704;23.304;2023-12-14T05:04:21;29.17;;;20.05;;
42006;SDS011;27696;42.704;23.304;2023-12-14T05:06:46;23.92;;;18.45;;
42006;SDS011;27696;42.704;23.304;2023-12-14T05:09:12;26.73;;;19.45;;
42006;SDS011;27696;42.704;23.304;2023-12-14T05:11:39;31.88;;;18.38;;
42006;SDS011;27696;42.704;23.304;2023-12-14T05:14:05;33.53;;;22.42;;
42006;SDS011;27696;42.704;23.304;2023-12-14T05:16:30;27.17;;;20.88;;
42006;SDS011;27696;42.704;23.304;2023-12-14T05:18:56;33.60;;;22.23;;
42006;SDS011;27696;42.704;23.304;2023-12-14T05:21:24;30.73;;;22.50;;
42006;SDS011;27696;42.704;23.304;2023-12-14T05:23:49;30.35;;;21.50;;
42006;SDS011;27696;42.704;23.304;2023-12-14T05:26:15;36.28;;;23.13;;
42006;SDS011;27696;42.704;23.304;2023-12-14T05:32:02;33.08;;;21.73;;
42006;SDS011;27696;42.704;23.304;2023-12-14T05:34:28;33.28;;;22.20;;
42006;SDS011;27696;42.704;23.304;2023-12-14T05:36:53;36.25;;;22.63;;
42006;SDS011;27696;42.704;23.304;2023-12-14T05:42:40;33.95;;;21.77;;
42006;SDS011;27696;42.704;23.304;2023-12-14T05:45:06;31.63;;;21.65;;
42006;SDS011;27696;42.704;23.304;2023-12-14T05:47:32;31.35;;;19.30;;
42006;SDS011;27696;42.704;23.304;2023-12-14T05:49:59;34.10;;;22.38;;
42006;SDS011;27696;42.704;23.304;2023-12-14T05:52:25;37.83;;;25.02;;
42006;SDS011;27696;42.704;23.304;2023-12-14T05:54:50;44.85;;;28.77;;
42006;SDS011;27696;42.704;23.304;2023-12-14T05:57:16;39.10;;;27.17;;
42006;SDS011;27696;42.704;23.304;2023-12-14T05:59:41;34.47;;;22.70;;
42006;SDS011;27696;42.704;23.304;2023-12-14T06:02:07;34.45;;;25.30;;
42006;SDS011;27696;42.704;23.304;2023-12-14T06:04:33;36.25;;;24.45;;
42006;SDS011;27696;42.704;23.304;2023-12-14T06:06:59;37.22;;;22.88;;
42006;SDS011;27696;42.704;23.304;2023-12-14T06:09:24;41.60;;;23.80;;
42006;SDS011;27696;42.704;23.304;2023-12-14T06:11:57;34.03;;;23.73;;
42006;SDS011;27696;42.704;23.304;2023-12-14T06:14:22;37.05;;;23.88;;
42006;SDS011;27696;42.704;23.304;2023-12-14T06:16:48;38.10;;;24.15;;
42006;SDS011;27696;42.704;23.304;2023-12-14T06:19:13;35.85;;;24.30;;
42006;SDS011;27696;42.704;23.304;2023-12-14T06:21:39;34.95;;;24.83;;
42006;SDS011;27696;42.704;23.304;2023-12-14T06:24:05;42.25;;;24.13;;
42006;SDS011;27696;42.704;23.304;2023-12-14T06:26:31;47.13;;;24.85;;
42006;SDS011;27696;42.704;23.304;2023-12-14T06:28:56;42.85;;;24.67;;
42006;SDS011;27696;42.704;23.304;2023-12-14T06:31:23;39.80;;;25.42;;
42006;SDS011;27696;42.704;23.304;2023-12-14T06:33:49;45.95;;;24.58;;
42006;SDS011;27696;42.704;23.304;2023-12-14T06:36:18;40.00;;;25.23;;
42006;SDS011;27696;42.704;23.304;2023-12-14T06:38:43;44.97;;;25.25;;
42006;SDS011;27696;42.704;23.304;2023-12-14T06:41:17;43.63;;;25.05;;
42006;SDS011;27696;42.704;23.304;2023-12-14T06:43:43;51.78;;;32.72;;
42006;SDS011;27696;42.704;23.304;2023-12-14T06:46:09;43.47;;;29.20;;
42006;SDS011;27696;42.704;23.304;2023-12-14T06:48:34;46.85;;;25.50;;
42006;SDS011;27696;42.704;23.304;2023-12-14T06:51:00;48.28;;;25.92;;
42006;SDS011;27696;42.704;23.304;2023-12-14T06:53:25;43.60;;;26.80;;
42006;SDS011;27696;42.704;23.304;2023-12-14T06:55:53;45.80;;;27.73;;
42006;SDS011;27696;42.704;23.304;2023-12-14T06:58:19;51.20;;;27.08;;
42006;SDS011;27696;42.704;23.304;2023-12-14T07:00:44;43.85;;;26.50;;
42006;SDS011;27696;42.704;23.304;2023-12-14T07:03:10;46.45;;;28.67;;
42006;SDS011;27696;42.704;23.304;2023-12-14T07:05:35;51.50;;;30.45;;
42006;SDS011;27696;42.704;23.304;2023-12-14T07:08:01;58.80;;;33.17;;
42006;SDS011;27696;42.704;23.304;2023-12-14T07:10:26;64.57;;;32.88;;
42006;SDS011;27696;42.704;23.304;2023-12-14T07:12:52;54.85;;;33.95;;
42006;SDS011;27696;42.704;23.304;2023-12-14T07:15:17;55.58;;;32.50;;
42006;SDS011;27696;42.704;23.304;2023-12-14T07:17:43;59.80;;;31.13;;
42006;SDS011;27696;42.704;23.304;2023-12-14T07:20:09;59.30;;;33.30;;
42006;SDS011;27696;42.704;23.304;2023-12-14T07:22:35;57.17;;;31.40;;
42006;SDS011;27696;42.704;23.304;2023-12-14T07:25:01;53.40;;;30.33;;
42006;SDS011;27696;42.704;23.304;2023-12-14T07:27:26;50.13;;;30.23;;
42006;SDS011;27696;42.704;23.304;2023-12-14T07:29:52;52.22;;;30.15;;
42006;SDS011;27696;42.704;23.304;2023-12-14T07:32:17;45.80;;;26.52;;
42006;SDS011;27696;42.704;23.304;2023-12-14T07:34:43;46.20;;;26.92;;
42006;SDS011;27696;42.704;23.304;2023-12-14T07:37:09;44.80;;;27.23;;
42006;SDS011;27696;42.704;23.304;2023-12-14T07:39:36;49.03;;;28.67;;
42006;SDS011;27696;42.704;23.304;2023-12-14T07:42:01;48.80;;;28.17;;
42006;SDS011;27696;42.704;23.304;2023-12-14T07:44:27;51.28;;;31.73;;
42006;SDS011;27696;42.704;23.304;2023-12-14T07:46:55;49.95;;;27.95;;
42006;SDS011;27696;42.704;23.304;2023-12-14T07:49:21;43.30;;;25.42;;
42006;SDS011;27696;42.704;23.304;2023-12-14T07:51:48;36.13;;;24.33;;
42006;SDS011;27696;42.704;23.304;2023-12-14T07:54:14;52.40;;;26.65;;
42006;SDS011;27696;42.704;23.304;2023-12-14T07:56:40;43.78;;;26.13;;
42006;SDS011;27696;42.704;23.304;2023-12-14T07:59:06;36.90;;;24.20;;
42006;SDS011;27696;42.704;23.304;2023-12-14T08:01:33;37.85;;;23.85;;
42006;SDS011;27696;42.704;23.304;2023-12-14T08:03:59;36.60;;;24.35;;
42006;SDS011;27696;42.704;23.304;2023-12-14T08:06:24;38.63;;;23.77;;
42006;SDS011;27696;42.704;23.304;2023-12-14T08:08:50;34.67;;;23.05;;
42006;SDS011;27696;42.704;23.304;2023-12-14T08:11:16;43.03;;;23.27;;
42006;SDS011;27696;42.704;23.304;2023-12-14T08:13:44;39.90;;;24.20;;
42006;SDS011;27696;42.704;23.304;2023-12-14T08:16:09;40.75;;;23.90;;
42006;SDS011;27696;42.704;23.304;2023-12-14T08:18:36;41.83;;;24.45;;
42006;SDS011;27696;42.704;23.304;2023-12-14T08:21:02;44.05;;;22.90;;
42006;SDS011;27696;42.704;23.304;2023-12-14T08:23:28;32.20;;;19.15;;
42006;SDS011;27696;42.704;23.304;2023-12-14T08:25:55;28.42;;;18.25;;
42006;SDS011;27696;42.704;23.304;2023-12-14T08:28:22;39.20;;;24.63;;
42006;SDS011;27696;42.704;23.304;2023-12-14T08:30:48;46.63;;;20.83;;
42006;SDS011;27696;42.704;23.304;2023-12-14T08:33:14;31.70;;;20.42;;
42006;SDS011;27696;42.704;23.304;2023-12-14T08:35:40;40.67;;;20.58;;
42006;SDS011;27696;42.704;23.304;2023-12-14T08:38:06;45.03;;;20.65;;
42006;SDS011;27696;42.704;23.304;2023-12-14T08:40:31;38.67;;;20.58;;
42006;SDS011;27696;42.704;23.304;2023-12-14T08:42:57;34.50;;;20.15;;
42006;SDS011;27696;42.704;23.304;2023-12-14T08:45:22;38.53;;;20.15;;
42006;SDS011;27696;42.704;23.304;2023-12-14T08:47:48;37.03;;;19.92;;
42006;SDS011;27696;42.704;23.304;2023-12-14T08:50:13;35.97;;;19.35;;
42006;SDS011;27696;42.704;23.304;2023-12-14T08:52:39;29.75;;;18.23;;
42006;SDS011;27696;42.704;23.304;2023-12-14T08:55:04;31.70;;;19.63;;
42006;SDS011;27696;42.704;23.304;2023-12-14T08:57:30;38.03;;;18.98;;
42006;SDS011;27696;42.704;23.304;2023-12-14T08:59:56;33.92;;;19.10;;
42006;SDS011;27696;42.704;23.304;2023-12-14T09:02:21;33.17;;;17.92;;
42006;SDS011;27696;42.704;23.304;2023-12-14T09:04:48;36.92;;;16.63;;
42006;SDS011;27696;42.704;23.304;2023-12-14T09:07:14;32.92;;;17.92;;
42006;SDS011;27696;42.704;23.304;2023-12-14T09:09:39;36.53;;;19.38;;
42006;SDS011;27696;42.704;23.304;2023-12-14T09:12:04;30.23;;;15.73;;
42006;SDS011;27696;42.704;23.304;2023-12-14T09:14:30;28.60;;;16.77;;
42006;SDS011;27696;42.704;23.304;2023-12-14T09:16:56;31.35;;;16.10;;
42006;SDS011;27696;42.704;23.304;2023-12-14T09:19:22;28.55;;;15.15;;
42006;SDS011;27696;42.704;23.304;2023-12-14T09:21:47;24.90;;;15.50;;
42006;SDS011;27696;42.704;23.304;2023-12-14T09:24:13;26.45;;;15.75;;
42006;SDS011;27696;42.704;23.304;2023-12-14T09:26:38;26.13;;;15.52;;
42006;SDS011;27696;42.704;23.304;2023-12-14T09:29:04;30.55;;;15.50;;
42006;SDS011;27696;42.704;23.304;2023-12-14T09:31:29;24.20;;;15.15;;
42006;SDS011;27696;42.704;23.304;2023-12-14T09:33:54;28.58;;;15.82;;
42006;SDS011;27696;42.704;23.304;2023-12-14T09:36:20;27.08;;;15.90;;
42006;SDS011;27696;42.704;23.304;2023-12-14T09:38:45;23.05;;;15.38;;
42006;SDS011;27696;42.704;23.304;2023-12-14T09:41:11;28.67;;;16.00;;
42006;SDS011;27696;42.704;23.304;2023-12-14T09:43:37;29.98;;;16.17;;
42006;SDS011;27696;42.704;23.304;2023-12-14T09:46:03;34.42;;;16.92;;
42006;SDS011;27696;42.704;23.304;2023-12-14T09:48:29;20.58;;;12.52;;
42006;SDS011;27696;42.704;23.304;2023-12-14T09:50:59;25.88;;;14.65;;
42006;SDS011;27696;42.704;23.304;2023-12-14T09:53:24;28.02;;;12.85;;
42006;SDS011;27696;42.704;23.304;2023-12-14T09:55:50;24.98;;;13.57;;
42006;SDS011;27696;42.704;23.304;2023-12-14T09:58:15;26.35;;;14.00;;
42006;SDS011;27696;42.704;23.304;2023-12-14T10:00:41;22.67;;;13.68;;
42006;SDS011;27696;42.704;23.304;2023-12-14T10:03:27;24.20;;;14.00;;
42006;SDS011;27696;42.704;23.304;2023-12-14T10:05:54;27.52;;;14.35;;
42006;SDS011;27696;42.704;23.304;2023-12-14T10:08:20;29.17;;;14.38;;
42006;SDS011;27696;42.704;23.304;2023-12-14T10:10:47;23.02;;;14.13;;
42006;SDS011;27696;42.704;23.304;2023-12-14T10:13:17;23.58;;;14.23;;
42006;SDS011;27696;42.704;23.304;2023-12-14T10:15:50;25.92;;;16.70;;
42006;SDS011;27696;42.704;23.304;2023-12-14T10:18:37;30.80;;;18.52;;
42006;SDS011;27696;42.704;23.304;2023-12-14T10:21:05;34.42;;;18.67;;
42006;SDS011;27696;42.704;23.304;2023-12-14T10:23:31;34.08;;;19.77;;
42006;SDS011;27696;42.704;23.304;2023-12-14T10:25:59;35.80;;;17.83;;
42006;SDS011;27696;42.704;23.304;2023-12-14T10:28:25;35.90;;;18.63;;
42006;SDS011;27696;42.704;23.304;2023-12-14T10:30:52;31.42;;;19.33;;
42006;SDS011;27696;42.704;23.304;2023-12-14T10:33:17;24.40;;;15.18;;
42006;SDS011;27696;42.704;23.304;2023-12-14T10:35:43;36.75;;;16.70;;
42006;SDS011;27696;42.704;23.304;2023-12-14T10:38:11;21.60;;;15.07;;
42006;SDS011;27696;42.704;23.304;2023-12-14T10:40:37;24.80;;;13.70;;
42006;SDS011;27696;42.704;23.304;2023-12-14T10:43:06;25.35;;;13.55;;
42006;SDS011;27696;42.704;23.304;2023-12-14T10:45:32;21.33;;;13.40;;
42006;SDS011;27696;42.704;23.304;2023-12-14T10:47:58;21.25;;;13.35;;
42006;SDS011;27696;42.704;23.304;2023-12-14T10:50:25;15.40;;;12.07;;
42006;SDS011;27696;42.704;23.304;2023-12-14T10:52:53;15.73;;;11.10;;
42006;SDS011;27696;42.704;23.304;2023-12-14T10:55:25;18.27;;;12.15;;
42006;SDS011;27696;42.704;23.304;2023-12-14T10:57:56;21.20;;;12.48;;
42006;SDS011;27696;42.704;23.304;2023-12-14T11:00:22;13.07;;;8.43;;
42006;SDS011;27696;42.704;23.304;2023-12-14T11:02:48;14.57;;;9.48;;
42006;SDS011;27696;42.704;23.304;2023-12-14T11:05:15;10.13;;;6.53;;
42006;SDS011;27696;42.704;23.304;2023-12-14T11:07:45;7.95;;;4.80;;
42006;SDS011;27696;42.704;23.304;2023-12-14T11:10:12;8.98;;;4.68;;
42006;SDS011;27696;42.704;23.304;2023-12-14T11:12:37;7.10;;;3.67;;
42006;SDS011;27696;42.704;23.304;2023-12-14T11:15:05;4.65;;;2.90;;
42006;SDS011;27696;42.704;23.304;2023-12-14T11:17:31;5.80;;;3.50;;
42006;SDS011;27696;42.704;23.304;2023-12-14T11:20:14;4.15;;;3.17;;
42006;SDS011;27696;42.704;23.304;2023-12-14T11:22:55;3.33;;;2.78;;
42006;SDS011;27696;42.704;23.304;2023-12-14T11:25:20;3.22;;;2.63;;
42006;SDS011;27696;42.704;23.304;2023-12-14T11:27:49;4.20;;;2.10;;
42006;SDS011;27696;42.704;23.304;2023-12-14T11:30:14;6.07;;;2.33;;
42006;SDS011;27696;42.704;23.304;2023-12-14T11:32:41;6.20;;;2.05;;
42006;SDS011;27696;42.704;23.304;2023-12-14T11:35:07;6.40;;;1.95;;
42006;SDS011;27696;42.704;23.304;2023-12-14T11:37:35;1.60;;;1.50;;
42006;SDS011;27696;42.704;23.304;2023-12-14T11:40:01;3.05;;;1.20;;
42006;SDS011;27696;42.704;23.304;2023-12-14T11:42:30;7.10;;;1.42;;
42006;SDS011;27696;42.704;23.304;2023-12-14T11:44:56;1.77;;;1.30;;
42006;SDS011;27696;42.704;23.304;2023-12-14T11:47:22;2.58;;;1.40;;
42006;SDS011;27696;42.704;23.304;2023-12-14T11:49:47;3.25;;;1.20;;
42006;SDS011;27696;42.704;23.304;2023-12-14T11:52:13;4.18;;;1.10;;
42006;SDS011;27696;42.704;23.304;2023-12-14T11:54:39;2.35;;;1.30;;
42006;SDS011;27696;42.704;23.304;2023-12-14T11:57:04;1.80;;;1.10;;
42006;SDS011;27696;42.704;23.304;2023-12-14T11:59:34;2.45;;;0.90;;
42006;SDS011;27696;42.704;23.304;2023-12-14T12:02:00;3.78;;;1.30;;
42006;SDS011;27696;42.704;23.304;2023-12-14T12:04:26;1.95;;;1.10;;
42006;SDS011;27696;42.704;23.304;2023-12-14T12:07:00;6.78;;;1.05;;
42006;SDS011;27696;42.704;23.304;2023-12-14T12:09:37;1.57;;;0.80;;
42006;SDS011;27696;42.704;23.304;2023-12-14T12:12:07;5.20;;;0.95;;
42006;SDS011;27696;42.704;23.304;2023-12-14T12:14:37;2.05;;;0.80;;
42006;SDS011;27696;42.704;23.304;2023-12-14T12:17:03;3.13;;;1.00;;
42006;SDS011;27696;42.704;23.304;2023-12-14T12:19:33;2.33;;;0.90;;
42006;SDS011;27696;42.704;23.304;2023-12-14T12:21:59;2.03;;;0.77;;
42006;SDS011;27696;42.704;23.304;2023-12-14T12:24:25;1.55;;;0.75;;
42006;SDS011;27696;42.704;23.304;2023-12-14T12:26:51;4.47;;;0.93;;
42006;SDS011;27696;42.704;23.304;2023-12-14T12:29:16;4.05;;;0.85;;
42006;SDS011;27696;42.704;23.304;2023-12-14T12:31:42;3.72;;;0.90;;
42006;SDS011;27696;42.704;23.304;2023-12-14T12:34:08;1.63;;;0.90;;
42006;SDS011;27696;42.704;23.304;2023-12-14T12:36:34;3.17;;;1.20;;
42006;SDS011;27696;42.704;23.304;2023-12-14T12:38:59;2.15;;;0.88;;
42006;SDS011;27696;42.704;23.304;2023-12-14T12:41:25;1.40;;;0.90;;
42006;SDS011;27696;42.704;23.304;2023-12-14T12:43:50;1.55;;;0.80;;
42006;SDS011;27696;42.704;23.304;2023-12-14T12:46:15;1.70;;;0.73;;
42006;SDS011;27696;42.704;23.304;2023-12-14T12:48:41;3.20;;;1.10;;
42006;SDS011;27696;42.704;23.304;2023-12-14T12:51:06;1.60;;;0.70;;
42006;SDS011;27696;42.704;23.304;2023-12-14T12:53:32;2.05;;;0.75;;
42006;SDS011;27696;42.704;23.304;2023-12-14T12:55:58;1.65;;;1.02;;
42006;SDS011;27696;42.704;23.304;2023-12-14T12:58:24;1.17;;;0.70;;
42006;SDS011;27696;42.704;23.304;2023-12-14T13:00:49;1.83;;;1.10;;
42006;SDS011;27696;42.704;23.304;2023-12-14T13:03:15;3.92;;;1.00;;
42006;SDS011;27696;42.704;23.304;2023-12-14T13:05:40;0.88;;;0.68;;
42006;SDS011;27696;42.704;23.304;2023-12-14T13:08:07;5.53;;;1.00;;
42006;SDS011;27696;42.704;23.304;2023-12-14T13:10:32;2.25;;;0.77;;
42006;SDS011;27696;42.704;23.304;2023-12-14T13:12:58;0.90;;;0.60;;
42006;SDS011;27696;42.704;23.304;2023-12-14T13:15:24;1.23;;;0.75;;
42006;SDS011;27696;42.704;23.304;2023-12-14T13:17:50;2.38;;;0.75;;
42006;SDS011;27696;42.704;23.304;2023-12-14T13:20:18;1.58;;;0.60;;
42006;SDS011;27696;42.704;23.304;2023-12-14T13:22:44;0.70;;;0.50;;
42006;SDS011;27696;42.704;23.304;2023-12-14T13:25:10;2.97;;;0.98;;
42006;SDS011;27696;42.704;23.304;2023-12-14T13:27:35;1.10;;;0.60;;
42006;SDS011;27696;42.704;23.304;2023-12-14T13:30:01;1.80;;;0.50;;
42006;SDS011;27696;42.704;23.304;2023-12-14T13:32:29;1.50;;;0.63;;
42006;SDS011;27696;42.704;23.304;2023-12-14T13:34:54;3.83;;;0.80;;
42006;SDS011;27696;42.704;23.304;2023-12-14T13:37:20;0.80;;;0.60;;
42006;SDS011;27696;42.704;23.304;2023-12-14T13:39:45;0.63;;;0.60;;
42006;SDS011;27696;42.704;23.304;2023-12-14T13:42:12;5.28;;;1.30;;
42006;SDS011;27696;42.704;23.304;2023-12-14T13:44:40;4.13;;;0.63;;
42006;SDS011;27696;42.704;23.304;2023-12-14T13:47:06;1.08;;;0.68;;
42006;SDS011;27696;42.704;23.304;2023-12-14T13:49:33;4.85;;;0.80;;
42006;SDS011;27696;42.704;23.304;2023-12-14T13:51:58;3.85;;;1.77;;
42006;SDS011;27696;42.704;23.304;2023-12-14T13:54:24;2.38;;;1.33;;
42006;SDS011;27696;42.704;23.304;2023-12-14T13:56:49;4.30;;;1.25;;
42006;SDS011;27696;42.704;23.304;2023-12-14T13:59:18;2.55;;;1.30;;
42006;SDS011;27696;42.704;23.304;2023-12-14T14:01:44;3.58;;;1.38;;
42006;SDS011;27696;42.704;23.304;2023-12-14T14:04:10;2.15;;;1.13;;
42006;SDS011;27696;42.704;23.304;2023-12-14T14:06:35;4.72;;;1.70;;
42006;SDS011;27696;42.704;23.304;2023-12-14T14:09:01;2.63;;;0.90;;
42006;SDS011;27696;42.704;23.304;2023-12-14T14:11:27;3.45;;;1.58;;
42006;SDS011;27696;42.704;23.304;2023-12-14T14:13:52;7.32;;;4.00;;
42006;SDS011;27696;42.704;23.304;2023-12-14T14:16:18;6.95;;;4.05;;
42006;SDS011;27696;42.704;23.304;2023-12-14T14:18:44;8.50;;;4.90;;
42006;SDS011;27696;42.704;23.304;2023-12-14T14:21:09;10.73;;;8.20;;
42006;SDS011;27696;42.704;23.304;2023-12-14T14:23:35;10.60;;;7.50;;
42006;SDS011;27696;42.704;23.304;2023-12-14T14:26:00;4.70;;;3.38;;
42006;SDS011;27696;42.704;23.304;2023-12-14T14:30:56;5.68;;;3.97;;
42006;SDS011;27696;42.704;23.304;2023-12-14T14:33:23;9.25;;;5.18;;